This is the latest recevied weather packets stored in our database for station/object KSRR. If no packets are shown the sender has not sent any weather packets the latest 10 day(s).
| Time | Temp. | Humidity | Pressure | Rain* | Wind** | Luminosity | Snow |
|---|---|---|---|---|---|---|---|
| 1777475024 | 10.56° C | 34% | 1022.4 hPa | - | - | - | - |
| 1777474423 | 10° C | 37% | 1022.7 hPa | - | - | - | - |
| 1777473825 | 10° C | 37% | 1022.7 hPa | - | - | - | - |
| 1777472625 | 8.89° C | 36% | 1022.7 hPa | - | - | - | - |
| 1777472021 | 8.89° C | 36% | 1022.7 hPa | - | - | - | - |
| 1777471421 | 8.89° C | 36% | 1022.7 hPa | - | - | - | - |
| 1777470821 | 8.89° C | 29% | 1022.4 hPa | - | - | - | - |
| 1777470219 | 8.89° C | 29% | 1022.4 hPa | - | - | - | - |
| 1777469622 | 10° C | 25% | 1022.4 hPa | - | - | - | - |
| 1777469023 | 10° C | 25% | 1022.4 hPa | - | - | - | - |
| 1777468419 | 12.78° C | 12% | 1022 hPa | - | - | - | - |
| 1777467821 | 12.78° C | 12% | 1022 hPa | - | - | - | - |
| 1777467222 | 11.67° C | 13% | 1021.7 hPa | - | - | - | - |
| 1777466620 | 11.67° C | 13% | 1021.7 hPa | - | - | - | - |
| 1777466019 | 11.67° C | 13% | 1021.7 hPa | - | - | - | - |
| 1777465420 | 11.67° C | 13% | 1021.7 hPa | - | - | - | - |
| 1777464818 | 12.78° C | 11% | 1021.3 hPa | - | - | - | - |
| 1777464218 | 12.78° C | 11% | 1021.3 hPa | - | - | - | - |
| 1777463618 | 11.67° C | 12% | 1021.3 hPa | - | - | - | - |
| 1777463018 | 11.67° C | 12% | 1021.3 hPa | - | - | - | - |
| 1777462416 | 11.67° C | 12% | 1021.3 hPa | - | - | - | - |
| 1777461820 | 11.67° C | 12% | 1021.3 hPa | - | - | - | - |
| 1777461220 | 11.67° C | 12% | 1021 hPa | - | - | - | - |
| 1777460622 | 11.67° C | 12% | 1021 hPa | - | - | - | - |
| 1777460019 | 12.78° C | 11% | 1020.7 hPa | - | - | - | - |
* Rain since midnight (hover to see other rain measurements)
** Current wind speed in m/s (hover to see current wind gust speed)